createdAt,value
2018-05-04T00:01:26.557Z,21
2018-05-04T00:11:27.375Z,21
2018-05-04T00:21:27.298Z,20
2018-05-04T00:31:27.675Z,20
2018-05-04T00:41:26.314Z,20
2018-05-04T00:51:28.684Z,21
2018-05-04T01:01:28.039Z,21
2018-05-04T01:11:27.034Z,20
2018-05-04T01:21:27.490Z,20
2018-05-04T01:31:26.509Z,20
2018-05-04T01:41:28.903Z,20
2018-05-04T01:51:26.528Z,20
2018-05-04T02:01:27.247Z,20
2018-05-04T02:11:28.283Z,20
2018-05-04T02:21:26.150Z,20
2018-05-04T02:31:27.333Z,20
2018-05-04T02:41:26.396Z,20
2018-05-04T02:51:27.482Z,20
2018-05-04T03:01:27.515Z,21
2018-05-04T03:11:27.130Z,20
2018-05-04T03:21:26.773Z,21
2018-05-04T03:31:28.339Z,20
2018-05-04T03:41:26.957Z,20
2018-05-04T03:51:27.670Z,20
2018-05-04T04:01:26.643Z,20
2018-05-04T04:11:27.599Z,20
2018-05-04T04:21:28.119Z,19
2018-05-04T04:31:27.774Z,19
2018-05-04T04:41:27.616Z,19
2018-05-04T04:51:27.451Z,19
2018-05-04T05:01:27.236Z,19
2018-05-04T05:11:27.368Z,19
2018-05-04T05:21:31.658Z,19
2018-05-04T05:31:28.284Z,19
2018-05-04T05:41:28.982Z,19
2018-05-04T05:51:27.612Z,19
2018-05-04T06:01:29.862Z,19
2018-05-04T06:11:27.892Z,19
2018-05-04T06:21:45.710Z,19
2018-05-04T06:31:27.688Z,19
2018-05-04T06:41:27.896Z,20
2018-05-04T06:51:27.209Z,20
2018-05-04T07:01:27.698Z,20
2018-05-04T07:11:28.352Z,20
2018-05-04T07:21:28.521Z,20
2018-05-04T07:31:26.158Z,20
2018-05-04T07:41:28.981Z,20
2018-05-04T07:51:26.995Z,20
2018-05-04T08:01:46.538Z,20
2018-05-04T08:11:26.306Z,20
2018-05-04T08:21:26.896Z,20
2018-05-04T08:31:27.862Z,20
2018-05-04T08:41:44.812Z,21
2018-05-04T08:51:30.908Z,21
2018-05-04T09:01:27.630Z,20
2018-05-04T09:11:29.084Z,21
2018-05-04T09:21:30.873Z,21
2018-05-04T09:31:27.764Z,21
2018-05-04T09:41:27.521Z,21
2018-05-04T09:51:27.392Z,22
2018-05-04T10:01:27.762Z,22
2018-05-04T10:11:27.951Z,22
2018-05-04T10:21:26.972Z,22
2018-05-04T10:31:26.894Z,22
2018-05-04T10:41:26.911Z,22
2018-05-04T10:51:27.303Z,22
2018-05-04T11:01:26.296Z,23
2018-05-04T11:11:27.394Z,23
2018-05-04T11:21:28.710Z,23
2018-05-04T11:31:26.981Z,23
2018-05-04T11:41:26.728Z,23
2018-05-04T11:51:27.614Z,23
2018-05-04T12:01:32.260Z,23
2018-05-04T12:11:30.801Z,24
2018-05-04T12:21:28.306Z,23
2018-05-04T12:31:32.705Z,24
2018-05-04T12:41:27.056Z,24
2018-05-04T12:51:34.698Z,24
2018-05-04T13:01:32.477Z,24
2018-05-04T13:11:32.931Z,24
2018-05-04T13:21:32.438Z,24
2018-05-04T13:31:32.124Z,24
2018-05-04T13:41:33.072Z,25
2018-05-04T13:51:28.034Z,25
2018-05-04T14:01:27.042Z,25
2018-05-04T14:11:28.012Z,25
2018-05-04T14:21:26.949Z,25
2018-05-04T14:31:28.299Z,25
2018-05-04T14:41:26.929Z,25
2018-05-04T14:51:27.573Z,26
2018-05-04T15:01:26.614Z,26
2018-05-04T15:11:26.496Z,25
2018-05-04T15:21:26.976Z,25
2018-05-04T15:31:27.312Z,25
2018-05-04T15:41:28.047Z,25
2018-05-04T15:51:26.835Z,25
2018-05-04T16:01:27.075Z,25
2018-05-04T16:11:26.865Z,24
2018-05-04T16:21:27.377Z,24
2018-05-04T16:31:26.718Z,24
2018-05-04T16:41:26.867Z,25
2018-05-04T16:51:26.616Z,24
2018-05-04T17:01:27.050Z,24
2018-05-04T17:11:28.080Z,25
2018-05-04T17:21:27.556Z,24
2018-05-04T17:31:26.589Z,23
2018-05-04T17:41:26.668Z,23
2018-05-04T17:51:26.950Z,23
2018-05-04T18:01:26.677Z,23
2018-05-04T18:11:26.699Z,23
2018-05-04T18:21:27.443Z,22
2018-05-04T19:22:19.029Z,21
2018-05-04T19:31:55.583Z,21
2018-05-04T20:21:53.290Z,20
2018-05-04T20:32:03.398Z,20
2018-05-04T20:43:09.592Z,20
2018-05-04T21:41:48.487Z,20
2018-05-04T21:51:41.265Z,20
2018-05-04T22:11:45.655Z,20
2018-05-04T22:21:26.713Z,19
2018-05-04T22:31:26.434Z,20
2018-05-04T22:41:29.224Z,19
2018-05-04T22:51:28.088Z,19
2018-05-04T23:01:27.859Z,18
2018-05-04T23:11:27.909Z,18
2018-05-04T23:21:27.979Z,18
2018-05-04T23:31:28.176Z,18
2018-05-04T23:41:28.672Z,19
2018-05-04T23:51:26.369Z,18
